createdAt,value
2019-04-23T00:00:07.593Z,53.52
2019-04-23T00:01:22.041Z,53.83
2019-04-23T00:02:10.520Z,54.13
2019-04-23T00:03:07.770Z,55.26
2019-04-23T00:04:05.879Z,54.54
2019-04-23T00:06:15.573Z,55.26
2019-04-23T00:07:22.707Z,54.24
2019-04-23T00:08:09.501Z,53.83
2019-04-23T00:09:12.433Z,54.44
2019-04-23T00:10:12.647Z,54.64
2019-04-23T00:12:12.671Z,54.44
2019-04-23T00:13:09.058Z,54.67
2019-04-23T00:14:12.222Z,54.67
2019-04-23T00:15:13.530Z,55.69
2019-04-23T00:16:26.564Z,55.07
2019-04-23T00:17:07.314Z,55.56
2019-04-23T00:18:12.309Z,55.99
2019-04-23T00:19:03.057Z,55.69
2019-04-23T00:20:10.070Z,55.48
2019-04-23T00:21:17.581Z,55.07
2019-04-23T00:22:05.536Z,55.28
2019-04-23T00:24:41.809Z,55.79
2019-04-23T00:26:13.725Z,54.87
2019-04-23T00:27:24.036Z,54.97
2019-04-23T00:28:16.515Z,55.38
2019-04-23T00:29:13.617Z,54.87
2019-04-23T00:30:11.087Z,55.18
2019-04-23T00:31:13.689Z,55.58
2019-04-23T00:32:10.347Z,55.07
2019-04-23T00:33:12.563Z,55.99
2019-04-23T00:34:11.001Z,55.48
2019-04-23T00:35:06.024Z,55.28
2019-04-23T00:36:10.749Z,54.87
2019-04-23T00:37:16.571Z,55.99
2019-04-23T00:38:13.937Z,55.79
2019-04-23T00:39:13.836Z,56.10
2019-04-23T00:40:02.613Z,55.48
2019-04-23T00:41:09.396Z,55.69
2019-04-23T00:42:12.054Z,56.10
2019-04-23T00:43:09.134Z,55.79
2019-04-23T00:44:15.124Z,56.60
2019-04-23T00:45:03.361Z,56.60
2019-04-23T00:46:11.051Z,55.71
2019-04-23T00:47:15.761Z,56.20
2019-04-23T00:48:15.423Z,55.71
2019-04-23T00:49:18.090Z,56.53
2019-04-23T00:50:12.127Z,56.40
2019-04-23T00:51:07.769Z,55.30
2019-04-23T00:52:16.405Z,55.91
2019-04-23T00:53:04.081Z,56.73
2019-04-23T00:54:13.927Z,55.71
2019-04-23T00:55:10.723Z,55.82
2019-04-23T00:56:26.609Z,56.23
2019-04-23T00:57:23.054Z,56.53
2019-04-23T00:58:14.168Z,56.53
2019-04-23T00:59:05.282Z,56.84
2019-04-23T01:00:19.040Z,56.53
2019-04-23T01:01:02.469Z,57.14
2019-04-23T01:02:08.856Z,57.04
2019-04-23T01:04:12.409Z,56.43
2019-04-23T01:05:11.330Z,56.84
2019-04-23T01:06:09.547Z,57.04
2019-04-23T01:07:04.324Z,56.84
2019-04-23T01:08:16.677Z,56.53
2019-04-23T01:09:25.967Z,56.23
2019-04-23T01:10:10.132Z,56.73
2019-04-23T01:12:06.386Z,56.94
2019-04-23T01:13:08.673Z,57.04
2019-04-23T01:14:08.333Z,56.94
2019-04-23T01:15:10.187Z,57.14
2019-04-23T01:16:08.951Z,56.94
2019-04-23T01:17:08.601Z,56.73
2019-04-23T01:18:14.266Z,57.55
2019-04-23T01:18:58.288Z,57.14
2019-04-23T01:20:08.225Z,56.73
2019-04-23T01:20:54.675Z,57.24
2019-04-23T01:21:47.375Z,57.24
2019-04-23T01:22:46.337Z,57.86
2019-04-23T01:23:52.632Z,58.47
2019-04-23T01:24:48.181Z,57.65
2019-04-23T01:25:54.279Z,58.16
2019-04-23T01:27:30.347Z,57.86
2019-04-23T01:28:07.601Z,58.09
2019-04-23T01:29:14.004Z,58.26
2019-04-23T01:31:18.610Z,57.75
2019-04-23T01:32:05.310Z,57.88
2019-04-23T01:33:12.302Z,57.55
2019-04-23T01:34:13.444Z,57.68
2019-04-23T01:37:09.306Z,58.09
2019-04-23T01:38:11.232Z,57.98
2019-04-23T01:39:11.833Z,57.78
2019-04-23T01:40:16.254Z,59.21
2019-04-23T01:41:13.280Z,58.70
2019-04-23T01:42:22.712Z,58.60
2019-04-23T01:43:12.572Z,58.60
2019-04-23T01:44:15.613Z,58.70
2019-04-23T01:45:26.932Z,58.60
2019-04-23T01:46:32.166Z,58.80
2019-04-23T01:47:15.606Z,58.80
2019-04-23T01:48:11.410Z,58.80
2019-04-23T01:49:18.549Z,59.00
2019-04-23T01:50:17.327Z,58.50
2019-04-23T01:51:08.219Z,58.70
2019-04-23T01:52:15.407Z,59.00
2019-04-23T01:53:16.643Z,58.80
2019-04-23T01:54:09.535Z,58.70
2019-04-23T01:55:17.194Z,58.80
2019-04-23T01:56:14.426Z,58.91
2019-04-23T01:57:16.641Z,58.80
2019-04-23T01:58:25.863Z,58.93
2019-04-23T01:59:14.119Z,59.00
2019-04-23T02:00:18.752Z,58.83
2019-04-23T02:01:11.326Z,58.60
2019-04-23T02:02:15.092Z,59.11
2019-04-23T02:04:18.688Z,60.44
2019-04-23T02:05:15.715Z,59.31
2019-04-23T02:06:18.906Z,60.13
2019-04-23T02:07:11.306Z,59.11
2019-04-23T02:08:07.810Z,59.14
2019-04-23T02:09:12.629Z,59.11
2019-04-23T02:10:25.915Z,59.00
2019-04-23T02:11:09.821Z,59.85
2019-04-23T02:12:11.538Z,60.05
2019-04-23T02:13:16.147Z,59.62
2019-04-23T02:15:23.012Z,60.46
2019-04-23T02:16:10.489Z,59.75
2019-04-23T02:17:28.790Z,59.14
2019-04-23T02:18:14.900Z,59.44
2019-04-23T02:19:17.712Z,60.46
2019-04-23T02:20:15.900Z,59.64
2019-04-23T02:21:10.590Z,60.16
2019-04-23T02:22:18.099Z,59.95
2019-04-23T02:24:12.764Z,60.36
2019-04-23T02:25:15.779Z,60.26
2019-04-23T02:26:09.539Z,60.46
2019-04-23T02:27:12.119Z,60.46
2019-04-23T02:28:15.952Z,60.97
2019-04-23T02:29:24.446Z,60.67
2019-04-23T02:30:36.310Z,60.26
2019-04-23T02:32:09.396Z,59.55
2019-04-23T02:33:31.835Z,60.57
2019-04-23T02:34:41.007Z,60.57
2019-04-23T02:35:32.845Z,60.77
2019-04-23T02:37:24.432Z,61.18
2019-04-23T02:38:27.254Z,60.57
2019-04-23T02:39:11.729Z,60.97
2019-04-23T02:42:28.636Z,60.90
2019-04-23T02:44:19.839Z,60.57
2019-04-23T02:45:16.502Z,60.36
2019-04-23T02:46:09.752Z,60.87
2019-04-23T02:47:23.125Z,61.41
2019-04-23T02:50:32.905Z,61.92
2019-04-23T02:51:22.081Z,61.31
2019-04-23T02:52:21.312Z,62.43
2019-04-23T02:53:25.991Z,61.79
2019-04-23T02:54:27.157Z,60.90
2019-04-23T02:55:22.021Z,61.21
2019-04-23T02:57:24.743Z,61.99
2019-04-23T03:03:28.122Z,60.80
2019-04-23T03:04:35.717Z,61.82
2019-04-23T03:06:14.965Z,61.82
2019-04-23T03:08:17.081Z,62.95
2019-04-23T03:09:20.611Z,62.02
2019-04-23T03:10:16.053Z,61.82
2019-04-23T03:11:26.722Z,62.02
2019-04-23T03:12:24.590Z,61.82
2019-04-23T03:13:28.869Z,62.13
2019-04-23T03:17:10.514Z,61.92
2019-04-23T03:18:37.491Z,62.36
2019-04-23T03:19:14.838Z,62.98
2019-04-23T03:20:21.450Z,62.95
2019-04-23T03:22:15.703Z,63.48
2019-04-23T03:23:25.276Z,64.10
2019-04-23T03:24:38.926Z,64.10
2019-04-23T03:25:23.426Z,63.07
2019-04-23T03:26:26.306Z,63.35
2019-04-23T03:27:25.260Z,63.69
2019-04-23T03:28:23.234Z,63.48
2019-04-23T03:29:25.735Z,63.39
2019-04-23T03:34:19.627Z,63.69
2019-04-23T03:35:09.564Z,64.51
2019-04-23T03:37:30.749Z,64.20
2019-04-23T03:38:32.108Z,64.00
2019-04-23T03:39:34.636Z,63.79
2019-04-23T03:42:33.113Z,64.20
2019-04-23T03:43:26.017Z,64.95
2019-04-23T03:44:20.795Z,64.03
2019-04-23T03:46:24.418Z,64.64
2019-04-23T03:47:26.786Z,64.03
2019-04-23T03:49:13.821Z,64.95
2019-04-23T03:51:17.188Z,64.43
2019-04-23T03:52:27.937Z,64.95
2019-04-23T03:53:24.904Z,65.46
2019-04-23T03:55:19.448Z,65.28
2019-04-23T03:56:24.024Z,65.05
2019-04-23T03:57:18.208Z,65.39
2019-04-23T03:58:19.177Z,64.87
2019-04-23T03:59:20.425Z,65.08
2019-04-23T04:00:28.899Z,64.98
2019-04-23T04:01:23.183Z,65.08
2019-04-23T04:02:30.674Z,65.49
2019-04-23T04:05:27.297Z,65.80
2019-04-23T04:07:36.306Z,66.20
2019-04-23T04:08:21.649Z,65.90
2019-04-23T04:09:26.049Z,66.10
2019-04-23T04:10:36.008Z,66.41
2019-04-23T04:11:18.273Z,66.51
2019-04-23T04:12:25.742Z,66.72
2019-04-23T04:13:22.660Z,66.31
2019-04-23T04:14:36.364Z,66.92
2019-04-23T04:15:31.104Z,66.51
2019-04-23T04:17:20.162Z,66.44
2019-04-23T04:19:25.128Z,66.92
2019-04-23T04:20:29.259Z,66.44
2019-04-23T04:23:26.248Z,66.75
2019-04-23T04:24:27.354Z,66.72
2019-04-23T04:25:37.470Z,67.23
2019-04-23T04:26:21.109Z,67.02
2019-04-23T04:27:15.136Z,66.72
2019-04-23T04:29:21.168Z,67.33
2019-04-23T04:30:22.262Z,67.46
2019-04-23T04:31:13.693Z,66.31
2019-04-23T04:32:12.475Z,67.16
2019-04-23T04:33:31.568Z,67.43
2019-04-23T04:34:55.583Z,68.05
2019-04-23T04:36:21.635Z,66.82
2019-04-23T04:37:35.540Z,67.13
2019-04-23T04:38:29.901Z,67.02
2019-04-23T04:39:19.475Z,66.41
2019-04-23T04:41:28.985Z,67.02
2019-04-23T04:44:38.172Z,66.07
2019-04-23T04:46:30.420Z,65.87
2019-04-23T04:47:28.584Z,64.95
2019-04-23T04:48:09.867Z,64.95
2019-04-23T04:51:19.396Z,65.46
2019-04-23T04:54:14.207Z,65.12
2019-04-23T04:55:21.032Z,65.02
2019-04-23T04:57:20.429Z,64.40
2019-04-23T04:58:35.168Z,64.81
2019-04-23T04:59:18.134Z,64.20
2019-04-23T05:00:20.413Z,65.02
2019-04-23T05:02:39.642Z,65.33
2019-04-23T05:04:24.222Z,65.22
2019-04-23T05:05:37.623Z,64.81
2019-04-23T05:06:37.964Z,66.55
2019-04-23T05:07:25.938Z,66.66
2019-04-23T05:11:23.726Z,64.89
2019-04-23T05:13:34.298Z,64.68
2019-04-23T05:14:13.580Z,65.30
2019-04-23T05:15:14.925Z,64.89
2019-04-23T05:16:15.980Z,65.30
2019-04-23T05:17:18.276Z,64.27
2019-04-23T05:19:25.038Z,63.86
2019-04-23T05:20:16.996Z,64.48
2019-04-23T05:21:15.440Z,64.14
2019-04-23T05:22:33.672Z,64.65
2019-04-23T05:24:08.848Z,65.16
2019-04-23T05:25:04.182Z,65.16
2019-04-23T05:26:13.563Z,65.06
2019-04-23T05:27:29.039Z,64.24
2019-04-23T05:28:12.558Z,65.16
2019-04-23T05:30:15.080Z,64.86
2019-04-23T05:31:17.565Z,64.34
2019-04-23T05:32:30.508Z,64.14
2019-04-23T05:33:18.841Z,64.14
2019-04-23T05:34:06.063Z,64.75
2019-04-23T05:35:15.061Z,63.83
2019-04-23T05:37:14.687Z,63.73
2019-04-23T05:38:31.453Z,64.45
2019-04-23T05:39:15.466Z,62.92
2019-04-23T05:40:25.368Z,64.45
2019-04-23T05:41:16.278Z,64.42
2019-04-23T05:42:10.954Z,64.11
2019-04-23T05:43:12.386Z,64.93
2019-04-23T05:44:15.721Z,65.44
2019-04-23T05:45:09.755Z,65.03
2019-04-23T05:46:19.892Z,65.03
2019-04-23T05:47:19.100Z,64.31
2019-04-23T05:48:13.424Z,65.74
2019-04-23T05:49:12.698Z,64.52
2019-04-23T05:50:18.722Z,64.93
2019-04-23T05:51:14.367Z,64.62
2019-04-23T05:52:07.984Z,64.28
2019-04-23T05:53:13.196Z,64.69
2019-04-23T05:54:14.093Z,64.39
2019-04-23T05:55:09.133Z,63.98
2019-04-23T05:56:06.493Z,65.51
2019-04-23T05:57:06.971Z,65.10
2019-04-23T05:58:16.576Z,64.76
2019-04-23T05:59:12.933Z,63.98
2019-04-23T06:00:08.914Z,65.00
2019-04-23T06:01:24.643Z,65.78
2019-04-23T06:02:11.346Z,63.75
2019-04-23T06:03:11.685Z,64.46
2019-04-23T06:05:08.933Z,63.95
2019-04-23T06:06:14.286Z,63.34
2019-04-23T06:07:24.948Z,64.15
2019-04-23T06:08:11.970Z,63.13
2019-04-23T06:11:08.613Z,62.59
2019-04-23T06:12:10.086Z,63.20
2019-04-23T06:13:16.789Z,62.59
2019-04-23T06:14:17.400Z,61.98
2019-04-23T06:15:12.882Z,62.90
2019-04-23T06:16:13.753Z,62.70
2019-04-23T06:17:19.848Z,62.26
2019-04-23T06:19:14.152Z,60.63
2019-04-23T06:20:09.354Z,62.36
2019-04-23T06:21:10.191Z,62.77
2019-04-23T06:22:31.518Z,61.85
2019-04-23T06:23:13.390Z,61.34
2019-04-23T06:24:17.006Z,61.61
2019-04-23T06:25:27.803Z,61.72
2019-04-23T06:26:25.425Z,61.72
2019-04-23T06:27:16.596Z,61.00
2019-04-23T06:29:15.725Z,58.44
2019-04-23T06:30:08.812Z,58.87
2019-04-23T06:31:09.766Z,58.46
2019-04-23T06:32:06.130Z,59.25
2019-04-23T06:33:16.407Z,58.74
2019-04-23T06:35:09.063Z,57.59
2019-04-23T06:36:13.579Z,58.10
2019-04-23T06:37:09.322Z,58.61
2019-04-23T06:39:06.691Z,57.18
2019-04-23T06:40:08.708Z,56.47
2019-04-23T06:41:15.652Z,56.47
2019-04-23T06:42:08.125Z,56.14
2019-04-23T06:43:16.614Z,56.75
2019-04-23T06:44:13.742Z,56.14
2019-04-23T06:45:06.249Z,56.14
2019-04-23T06:46:17.188Z,55.73
2019-04-23T06:47:06.884Z,55.63
2019-04-23T06:48:20.311Z,56.24
2019-04-23T06:49:09.187Z,56.82
2019-04-23T06:50:07.559Z,56.73
2019-04-23T06:51:15.860Z,55.00
2019-04-23T06:53:05.191Z,55.38
2019-04-23T06:54:14.556Z,55.18
2019-04-23T06:55:09.410Z,55.18
2019-04-23T06:56:13.554Z,54.77
2019-04-23T06:57:14.652Z,55.38
2019-04-23T06:58:12.293Z,54.77
2019-04-23T06:59:12.898Z,55.05
2019-04-23T07:00:10.206Z,54.84
2019-04-23T07:01:06.696Z,55.12
2019-04-23T07:02:11.893Z,54.51
2019-04-23T07:03:16.127Z,54.61
2019-04-23T07:04:10.700Z,55.12
2019-04-23T07:05:08.593Z,52.99
2019-04-23T07:07:31.611Z,53.67
2019-04-23T07:08:17.941Z,53.47
2019-04-23T07:09:12.417Z,53.45
2019-04-23T07:10:07.301Z,52.64
2019-04-23T07:11:18.802Z,52.84
2019-04-23T07:12:09.101Z,52.00
2019-04-23T07:13:18.806Z,52.71
2019-04-23T07:14:26.204Z,53.32
2019-04-23T07:15:30.880Z,51.60
2019-04-23T07:16:09.912Z,51.98
2019-04-23T07:17:21.398Z,51.27
2019-04-23T07:18:10.050Z,51.27
2019-04-23T07:19:12.732Z,49.14
2019-04-23T07:20:09.787Z,48.83
2019-04-23T07:21:12.969Z,49.44
2019-04-23T07:22:14.889Z,47.50
2019-04-23T07:23:17.091Z,48.71
2019-04-23T07:24:08.607Z,48.51
2019-04-23T07:25:08.390Z,47.88
2019-04-23T07:26:23.013Z,47.67
2019-04-23T07:27:11.935Z,47.27
2019-04-23T07:28:13.484Z,47.47
2019-04-23T07:29:13.971Z,47.58
2019-04-23T07:30:22.310Z,48.28
2019-04-23T07:31:17.168Z,48.36
2019-04-23T07:32:05.278Z,46.95
2019-04-23T07:33:11.862Z,47.15
2019-04-23T07:34:10.633Z,47.33
2019-04-23T07:36:11.411Z,47.03
2019-04-23T07:37:07.373Z,47.83
2019-04-23T07:38:16.420Z,47.33
2019-04-23T07:40:27.506Z,45.18
2019-04-23T07:41:18.583Z,45.89
2019-04-23T07:42:27.021Z,45.29
2019-04-23T07:43:11.597Z,44.96
2019-04-23T07:44:08.432Z,44.76
2019-04-23T07:45:12.447Z,44.84
2019-04-23T07:46:20.214Z,45.34
2019-04-23T07:47:19.440Z,45.45
2019-04-23T07:49:10.388Z,44.21
2019-04-23T07:50:22.913Z,44.01
2019-04-23T07:51:05.781Z,43.91
2019-04-23T07:53:13.303Z,44.11
2019-04-23T07:55:22.018Z,44.09
2019-04-23T07:56:07.615Z,44.19
2019-04-23T07:57:15.318Z,44.39
2019-04-23T07:58:17.325Z,43.89
2019-04-23T07:59:12.345Z,43.69
2019-04-23T08:00:22.981Z,42.96
2019-04-23T08:01:05.015Z,43.66
2019-04-23T08:02:16.080Z,43.26
2019-04-23T08:03:17.332Z,42.76
2019-04-23T08:04:11.515Z,42.84
2019-04-23T08:05:17.927Z,43.95
2019-04-23T08:06:10.326Z,43.44
2019-04-23T08:07:22.575Z,42.94
2019-04-23T08:08:06.733Z,42.61
2019-04-23T08:09:10.371Z,43.22
2019-04-23T08:10:18.604Z,42.72
2019-04-23T08:12:12.420Z,42.82
2019-04-23T08:14:08.494Z,41.61
2019-04-23T08:15:09.091Z,41.59
2019-04-23T08:16:19.678Z,41.51
2019-04-23T08:17:12.418Z,43.00
2019-04-23T08:18:13.628Z,41.99
2019-04-23T08:20:08.050Z,41.29
2019-04-23T08:21:09.820Z,42.38
2019-04-23T08:22:22.209Z,43.20
2019-04-23T08:23:09.992Z,42.50
2019-04-23T08:24:12.981Z,42.47
2019-04-23T08:25:31.917Z,41.99
2019-04-23T08:26:23.939Z,42.40
2019-04-23T08:27:12.922Z,41.29
2019-04-23T08:28:13.441Z,43.40
2019-04-23T08:29:12.881Z,43.51
2019-04-23T08:30:05.646Z,42.92
2019-04-23T08:31:09.372Z,42.70
2019-04-23T08:32:18.938Z,41.81
2019-04-23T08:34:17.024Z,42.32
2019-04-23T08:36:12.160Z,43.22
2019-04-23T08:37:08.894Z,42.50
2019-04-23T08:39:14.018Z,43.42
2019-04-23T08:40:09.768Z,44.02
2019-04-23T08:41:22.899Z,43.42
2019-04-23T08:42:28.802Z,42.11
2019-04-23T08:43:25.124Z,43.12
2019-04-23T08:44:16.863Z,43.52
2019-04-23T08:45:21.762Z,43.62
2019-04-23T08:46:07.244Z,42.72
2019-04-23T08:48:14.196Z,42.61
2019-04-23T08:49:11.872Z,43.32
2019-04-23T08:50:04.815Z,43.62
2019-04-23T08:51:25.483Z,43.93
2019-04-23T08:52:14.857Z,43.52
2019-04-23T08:53:23.422Z,44.83
2019-04-23T08:54:21.905Z,44.01
2019-04-23T08:55:11.178Z,43.30
2019-04-23T08:56:12.360Z,43.40
2019-04-23T08:57:08.736Z,42.19
2019-04-23T08:58:06.149Z,42.07
2019-04-23T08:59:22.572Z,42.46
2019-04-23T09:00:07.804Z,42.96
2019-04-23T09:02:30.821Z,40.50
2019-04-23T09:03:11.226Z,41.31
2019-04-23T09:04:14.110Z,42.92
2019-04-23T09:05:11.118Z,41.19
2019-04-23T09:09:12.744Z,38.76
2019-04-23T09:10:15.485Z,38.26
2019-04-23T09:11:27.570Z,39.66
2019-04-23T09:12:12.305Z,38.06
2019-04-23T09:13:35.087Z,39.76
2019-04-23T09:14:00.950Z,39.54
2019-04-23T09:15:07.161Z,39.34
2019-04-23T09:16:22.628Z,40.26
2019-04-23T09:17:13.212Z,38.94
2019-04-23T09:18:09.260Z,39.14
2019-04-23T09:21:10.553Z,39.81
2019-04-23T09:22:19.155Z,39.39
2019-04-23T09:23:10.062Z,39.18
2019-04-23T09:24:05.794Z,37.46
2019-04-23T09:25:14.095Z,38.23
2019-04-23T09:26:02.384Z,35.81
2019-04-23T09:27:16.406Z,36.78
2019-04-23T09:28:07.369Z,35.36
2019-04-23T09:29:04.570Z,36.52
2019-04-23T09:30:16.769Z,35.11
2019-04-23T09:31:14.476Z,34.50
2019-04-23T09:33:07.494Z,32.75
2019-04-23T09:34:04.969Z,32.95
2019-04-23T09:35:15.935Z,32.54
2019-04-23T09:36:06.521Z,31.53
2019-04-23T09:37:13.483Z,31.61
2019-04-23T09:38:07.017Z,31.60
2019-04-23T09:39:24.058Z,31.40
2019-04-23T09:40:18.987Z,31.68
2019-04-23T09:41:20.008Z,29.60
2019-04-23T09:42:08.786Z,30.79
2019-04-23T09:43:16.890Z,30.87
2019-04-23T09:45:05.457Z,30.47
2019-04-23T09:46:15.523Z,30.28
2019-04-23T09:50:11.140Z,30.29
2019-04-23T09:51:10.153Z,30.69
2019-04-23T09:54:09.804Z,30.79
2019-04-23T09:55:20.064Z,30.79
2019-04-23T09:56:05.092Z,30.49
2019-04-23T09:57:07.242Z,29.99
2019-04-23T09:58:07.799Z,30.99
2019-04-23T09:59:17.498Z,31.20
2019-04-23T10:00:10.716Z,29.81
2019-04-23T10:00:59.108Z,30.00
2019-04-23T10:02:04.244Z,30.12
2019-04-23T10:02:53.336Z,30.72
2019-04-23T10:03:53.348Z,30.54
2019-04-23T10:04:57.454Z,32.64
2019-04-23T10:05:51.001Z,31.96
2019-04-23T10:06:56.329Z,32.65
2019-04-23T10:07:53.348Z,31.77
2019-04-23T10:08:47.433Z,33.58
2019-04-23T10:09:40.647Z,32.60
2019-04-23T10:10:40.471Z,33.51
2019-04-23T10:11:40.875Z,34.21
2019-04-23T10:12:39.997Z,33.53
2019-04-23T10:13:40.594Z,33.93
2019-04-23T10:14:51.215Z,33.53
2019-04-23T10:15:42.979Z,33.83
2019-04-23T10:16:41.277Z,34.61
2019-04-23T10:17:40.279Z,34.11
2019-04-23T10:18:39.418Z,34.21
2019-04-23T10:19:40.605Z,33.91
2019-04-23T10:20:40.415Z,34.61
2019-04-23T10:21:39.513Z,33.30
2019-04-23T10:22:39.551Z,33.38
2019-04-23T10:23:39.196Z,33.78
2019-04-23T10:24:39.316Z,34.48
2019-04-23T10:25:40.279Z,33.08
2019-04-23T10:26:39.945Z,33.97
2019-04-23T10:27:39.304Z,33.08
2019-04-23T10:28:40.276Z,32.89
2019-04-23T10:29:39.120Z,33.88
2019-04-23T10:30:40.650Z,33.40
2019-04-23T10:31:40.069Z,33.50
2019-04-23T10:32:40.067Z,33.60
2019-04-23T10:33:39.909Z,33.01
2019-04-23T10:35:00.748Z,33.51
2019-04-23T10:35:48.990Z,33.12
2019-04-23T10:36:40.627Z,33.53
2019-04-23T10:37:46.871Z,34.43
2019-04-23T10:38:41.581Z,33.15
2019-04-23T10:39:44.699Z,33.75
2019-04-23T10:40:45.851Z,33.96
2019-04-23T10:41:42.601Z,34.26
2019-04-23T10:42:43.776Z,34.18
2019-04-23T10:43:42.508Z,34.58
2019-04-23T10:44:40.715Z,35.39
2019-04-23T10:45:57.623Z,35.28
2019-04-23T10:47:06.717Z,34.59
2019-04-23T10:48:17.312Z,35.68
2019-04-23T10:49:28.567Z,35.99
2019-04-23T10:50:05.700Z,35.19
2019-04-23T10:51:04.570Z,35.39
2019-04-23T10:53:23.439Z,34.59
2019-04-23T10:54:24.706Z,35.99
2019-04-23T10:55:06.759Z,35.49
2019-04-23T10:56:23.394Z,35.41
2019-04-23T10:57:04.044Z,37.29
2019-04-23T10:58:11.816Z,35.91
2019-04-23T10:59:10.815Z,34.81
2019-04-23T10:59:58.629Z,35.83
2019-04-23T11:01:21.356Z,35.73
2019-04-23T11:02:20.041Z,36.63
2019-04-23T11:03:18.578Z,37.43
2019-04-23T11:04:23.046Z,36.65
2019-04-23T11:05:29.162Z,36.55
2019-04-23T11:07:19.813Z,37.45
2019-04-23T11:08:02.323Z,36.85
2019-04-23T11:09:18.697Z,35.64
2019-04-23T11:10:11.221Z,36.16
2019-04-23T11:12:12.583Z,36.46
2019-04-23T11:13:10.668Z,37.27
2019-04-23T11:14:16.216Z,36.96
2019-04-23T11:15:18.302Z,37.46
2019-04-23T11:17:03.765Z,36.66
2019-04-23T11:17:59.497Z,36.76
2019-04-23T11:19:21.469Z,37.18
2019-04-23T11:20:15.540Z,37.08
2019-04-23T11:21:13.949Z,37.38
2019-04-23T11:22:32.959Z,36.70
2019-04-23T11:23:00.519Z,36.50
2019-04-23T11:24:20.640Z,36.10
2019-04-23T11:25:20.457Z,36.70
2019-04-23T11:27:17.435Z,37.10
2019-04-23T11:28:13.537Z,36.72
2019-04-23T11:29:12.795Z,37.42
2019-04-23T11:30:19.160Z,37.42
2019-04-23T11:31:15.661Z,37.42
2019-04-23T11:32:35.184Z,37.52
2019-04-23T11:33:14.702Z,36.92
2019-04-23T11:36:35.766Z,37.62
2019-04-23T11:37:19.443Z,37.13
2019-04-23T11:39:25.399Z,38.44
2019-04-23T11:40:08.753Z,37.04
2019-04-23T11:41:09.051Z,38.74
2019-04-23T11:42:11.551Z,39.25
2019-04-23T11:44:13.298Z,39.12
2019-04-23T11:45:15.788Z,38.53
2019-04-23T11:46:26.581Z,39.73
2019-04-23T11:47:28.445Z,38.22
2019-04-23T11:48:33.006Z,39.01
2019-04-23T11:49:26.512Z,39.91
2019-04-23T11:50:24.383Z,38.81
2019-04-23T11:51:41.131Z,37.80
2019-04-23T11:52:18.930Z,37.40
2019-04-23T11:53:15.563Z,37.30
2019-04-23T11:54:10.217Z,36.88
2019-04-23T11:55:22.803Z,36.78
2019-04-23T11:56:13.637Z,36.58
2019-04-23T11:59:21.657Z,37.08
2019-04-23T12:01:23.630Z,36.96
2019-04-23T12:02:05.279Z,37.77
2019-04-23T12:02:58.037Z,35.46
2019-04-23T12:04:24.126Z,36.46
2019-04-23T12:05:21.333Z,36.66
2019-04-23T12:06:12.115Z,36.66
2019-04-23T12:07:14.007Z,36.75
2019-04-23T12:08:16.952Z,36.15
2019-04-23T12:09:09.332Z,34.63
2019-04-23T12:10:19.740Z,35.89
2019-04-23T12:11:35.162Z,35.49
2019-04-23T12:12:08.235Z,34.88
2019-04-23T12:13:12.226Z,34.59
2019-04-23T12:14:24.234Z,34.88
2019-04-23T12:15:15.368Z,34.86
2019-04-23T12:16:10.473Z,34.05
2019-04-23T12:17:15.850Z,34.73
2019-04-23T12:18:10.663Z,33.51
2019-04-23T12:19:34.511Z,33.90
2019-04-23T12:21:04.205Z,33.98
2019-04-23T12:24:17.152Z,32.35
2019-04-23T12:26:11.648Z,33.56
2019-04-23T12:28:08.585Z,33.38
2019-04-23T12:29:13.943Z,34.39
2019-04-23T12:30:25.291Z,34.00
2019-04-23T12:31:10.028Z,34.71
2019-04-23T12:32:24.840Z,34.41
2019-04-23T12:33:31.750Z,34.21
2019-04-23T12:34:09.510Z,34.31
2019-04-23T12:36:05.013Z,33.91
2019-04-23T12:37:03.703Z,33.70
2019-04-23T12:38:10.316Z,33.58
2019-04-23T12:39:15.478Z,33.00
2019-04-23T12:40:15.335Z,32.89
2019-04-23T12:41:10.524Z,33.68
2019-04-23T12:42:25.139Z,32.18
2019-04-23T12:43:12.110Z,33.18
2019-04-23T12:44:11.046Z,33.88
2019-04-23T12:45:14.285Z,33.28
2019-04-23T12:46:08.861Z,33.48
2019-04-23T12:47:19.270Z,34.16
2019-04-23T12:49:25.005Z,32.26
2019-04-23T12:50:58.639Z,32.44
2019-04-23T12:52:12.019Z,31.45
2019-04-23T12:53:10.522Z,32.54
2019-04-23T12:54:16.222Z,32.44
2019-04-23T12:55:15.019Z,32.44
2019-04-23T12:56:10.809Z,30.75
2019-04-23T12:57:14.264Z,31.23
2019-04-23T12:59:07.567Z,30.93
2019-04-23T13:00:05.265Z,31.13
2019-04-23T13:01:10.824Z,31.32
2019-04-23T13:03:04.968Z,30.00
2019-04-23T13:04:09.393Z,30.12
2019-04-23T13:05:28.775Z,30.91
2019-04-23T13:06:01.086Z,30.80
2019-04-23T13:07:09.117Z,30.09
2019-04-23T13:08:08.636Z,29.20
2019-04-23T13:09:19.448Z,28.41
2019-04-23T13:10:22.588Z,28.80
2019-04-23T13:11:10.291Z,29.11
2019-04-23T13:12:10.560Z,30.12
2019-04-23T13:14:08.874Z,29.94
2019-04-23T13:15:10.855Z,30.55
2019-04-23T13:16:12.233Z,29.97
2019-04-23T13:17:12.606Z,29.78
2019-04-23T13:18:06.772Z,31.77
2019-04-23T13:19:14.726Z,31.39
2019-04-23T13:20:15.194Z,31.30
2019-04-23T13:21:14.278Z,32.42
2019-04-23T13:22:08.244Z,32.52
2019-04-23T13:24:05.104Z,32.93
2019-04-23T13:25:10.161Z,32.85
2019-04-23T13:27:10.769Z,33.36
2019-04-23T13:28:06.586Z,32.76
2019-04-23T13:29:16.105Z,33.36
2019-04-23T13:30:08.619Z,33.68
2019-04-23T13:31:06.474Z,34.08
2019-04-23T13:32:05.444Z,34.09
2019-04-23T13:33:18.071Z,34.09
2019-04-23T13:34:10.349Z,34.30
2019-04-23T13:35:20.125Z,34.71
2019-04-23T13:36:14.510Z,34.59
2019-04-23T13:37:11.290Z,35.19
2019-04-23T13:38:12.472Z,34.51
2019-04-23T13:39:07.191Z,36.41
2019-04-23T13:40:09.510Z,37.01
2019-04-23T13:41:13.377Z,35.81
2019-04-23T13:43:14.694Z,36.61
2019-04-23T13:44:04.557Z,36.01
2019-04-23T13:46:15.788Z,34.50
2019-04-23T13:47:10.646Z,36.58
2019-04-23T13:48:06.321Z,36.28
2019-04-23T13:49:03.143Z,34.96
2019-04-23T13:50:17.890Z,35.44
2019-04-23T13:51:06.701Z,34.33
2019-04-23T13:52:26.395Z,35.11
2019-04-23T13:54:39.375Z,33.80
2019-04-23T13:56:15.335Z,32.87
2019-04-23T13:57:37.267Z,33.47
2019-04-23T13:58:20.742Z,34.06
2019-04-23T14:00:07.066Z,33.35
2019-04-23T14:01:19.434Z,31.76
2019-04-23T14:02:17.617Z,33.45
2019-04-23T14:03:02.896Z,32.26
2019-04-23T14:04:15.252Z,33.37
2019-04-23T14:05:04.895Z,33.08
2019-04-23T14:06:16.483Z,33.98
2019-04-23T14:07:07.836Z,34.30
2019-04-23T14:08:13.098Z,33.80
2019-04-23T14:10:13.558Z,33.93
2019-04-23T14:11:20.978Z,34.63
2019-04-23T14:12:09.065Z,35.03
2019-04-23T14:14:08.173Z,35.24
2019-04-23T14:16:13.769Z,36.15
2019-04-23T14:17:18.021Z,35.46
2019-04-23T14:18:55.902Z,35.36
2019-04-23T14:20:12.045Z,34.46
2019-04-23T14:21:14.087Z,34.36
2019-04-23T14:22:20.996Z,33.86
2019-04-23T14:23:14.319Z,34.16
2019-04-23T14:24:17.722Z,33.86
2019-04-23T14:25:06.042Z,34.26
2019-04-23T14:26:21.524Z,33.86
2019-04-23T14:27:10.892Z,34.55
2019-04-23T14:29:19.097Z,35.05
2019-04-23T14:30:13.231Z,35.14
2019-04-23T14:31:04.839Z,34.64
2019-04-23T14:32:08.797Z,34.23
2019-04-23T14:33:12.064Z,34.53
2019-04-23T14:34:04.747Z,34.33
2019-04-23T14:35:18.457Z,33.53
2019-04-23T14:36:07.535Z,33.73
2019-04-23T14:37:22.020Z,33.53
2019-04-23T14:39:09.831Z,33.84
2019-04-23T14:40:01.547Z,33.36
2019-04-23T14:43:17.942Z,34.30
2019-04-23T14:44:11.030Z,34.89
2019-04-23T14:46:35.002Z,35.61
2019-04-23T14:47:23.941Z,35.31
2019-04-23T14:48:12.313Z,36.33
2019-04-23T14:49:04.164Z,37.13
2019-04-23T14:51:16.703Z,36.44
2019-04-23T14:52:09.042Z,36.75
2019-04-23T14:53:16.032Z,37.46
2019-04-23T14:54:10.388Z,36.96
2019-04-23T14:55:43.939Z,38.17
2019-04-23T14:56:09.449Z,38.97
2019-04-23T14:57:24.593Z,37.98
2019-04-23T14:58:17.992Z,38.68
2019-04-23T15:00:11.286Z,37.88
2019-04-23T15:02:05.561Z,40.09
2019-04-23T15:03:08.680Z,38.31
2019-04-23T15:04:01.896Z,40.19
2019-04-23T15:05:13.501Z,39.81
2019-04-23T15:07:13.231Z,38.70
2019-04-23T15:08:04.077Z,38.40
2019-04-23T15:09:13.922Z,38.51
2019-04-23T15:10:09.135Z,38.72
2019-04-23T15:12:20.006Z,39.73
2019-04-23T15:13:06.850Z,39.62
2019-04-23T15:14:06.068Z,39.93
2019-04-23T15:15:21.227Z,40.15
2019-04-23T15:16:20.821Z,39.75
2019-04-23T15:17:07.240Z,39.75
2019-04-23T15:18:09.291Z,39.34
2019-04-23T15:20:04.845Z,39.45
2019-04-23T15:21:34.243Z,40.15